sensor_id;sensor_type;location;lat;lon;timestamp;pressure;altitude;pressure_sealevel;temperature;humidity
59475;BME280;45288;51.136;16.928;2024-02-21T00:00:11;100800.00;;;7.63;100.00
59475;BME280;45288;51.136;16.928;2024-02-21T00:02:50;100790.75;;;7.73;100.00
59475;BME280;45288;51.136;16.928;2024-02-21T00:05:37;100795.38;;;7.85;100.00
59475;BME280;45288;51.136;16.928;2024-02-21T00:08:16;100791.97;;;7.83;100.00
59475;BME280;45288;51.136;16.928;2024-02-21T00:11:02;100795.28;;;7.87;100.00
59475;BME280;45288;51.136;16.928;2024-02-21T00:13:41;100787.78;;;7.97;100.00
59475;BME280;45288;51.136;16.928;2024-02-21T00:16:27;100791.75;;;7.88;100.00
59475;BME280;45288;51.136;16.928;2024-02-21T00:19:06;100792.75;;;7.85;100.00
59475;BME280;45288;51.136;16.928;2024-02-21T00:22:00;100785.88;;;7.67;100.00
59475;BME280;45288;51.136;16.928;2024-02-21T00:24:33;100782.53;;;7.63;100.00
59475;BME280;45288;51.136;16.928;2024-02-21T00:27:25;100778.56;;;7.56;100.00
59475;BME280;45288;51.136;16.928;2024-02-21T00:29:57;100772.63;;;7.70;100.00
59475;BME280;45288;51.136;16.928;2024-02-21T00:32:50;100786.53;;;7.71;100.00
59475;BME280;45288;51.136;16.928;2024-02-21T00:35:23;100773.94;;;7.61;100.00
59475;BME280;45288;51.136;16.928;2024-02-21T00:38:15;100781.91;;;7.76;100.00
59475;BME280;45288;51.136;16.928;2024-02-21T00:40:47;100773.94;;;7.95;100.00
59475;BME280;45288;51.136;16.928;2024-02-21T00:43:41;100772.53;;;8.05;100.00
59475;BME280;45288;51.136;16.928;2024-02-21T00:46:14;100769.72;;;7.92;100.00
59475;BME280;45288;51.136;16.928;2024-02-21T00:49:06;100766.06;;;7.79;100.00
59475;BME280;45288;51.136;16.928;2024-02-21T00:51:39;100765.16;;;7.80;100.00
59475;BME280;45288;51.136;16.928;2024-02-21T00:54:31;100754.25;;;7.72;100.00
59475;BME280;45288;51.136;16.928;2024-02-21T00:57:04;100760.44;;;7.86;100.00
59475;BME280;45288;51.136;16.928;2024-02-21T00:59:56;100754.22;;;7.89;100.00
59475;BME280;45288;51.136;16.928;2024-02-21T01:02:29;100750.53;;;7.93;100.00
59475;BME280;45288;51.136;16.928;2024-02-21T01:05:21;100751.22;;;8.13;100.00
59475;BME280;45288;51.136;16.928;2024-02-21T01:07:55;100750.13;;;8.01;100.00
59475;BME280;45288;51.136;16.928;2024-02-21T01:10:47;100744.34;;;7.94;100.00
59475;BME280;45288;51.136;16.928;2024-02-21T01:13:20;100749.09;;;8.03;100.00
59475;BME280;45288;51.136;16.928;2024-02-21T01:16:12;100747.75;;;7.96;100.00
59475;BME280;45288;51.136;16.928;2024-02-21T01:18:45;100740.84;;;7.95;100.00
59475;BME280;45288;51.136;16.928;2024-02-21T01:21:37;100736.09;;;7.69;100.00
59475;BME280;45288;51.136;16.928;2024-02-21T01:24:17;100733.03;;;7.78;100.00
59475;BME280;45288;51.136;16.928;2024-02-21T01:27:02;100737.31;;;7.79;100.00
59475;BME280;45288;51.136;16.928;2024-02-21T01:29:41;100731.19;;;7.80;100.00
59475;BME280;45288;51.136;16.928;2024-02-21T01:32:36;100732.06;;;7.63;100.00
59475;BME280;45288;51.136;16.928;2024-02-21T01:35:08;100725.03;;;7.81;100.00
59475;BME280;45288;51.136;16.928;2024-02-21T01:38:00;100720.31;;;7.88;100.00
59475;BME280;45288;51.136;16.928;2024-02-21T01:40:33;100721.19;;;8.04;100.00
59475;BME280;45288;51.136;16.928;2024-02-21T01:43:25;100713.50;;;8.01;100.00
59475;BME280;45288;51.136;16.928;2024-02-21T01:45:58;100707.31;;;7.86;100.00
59475;BME280;45288;51.136;16.928;2024-02-21T01:48:50;100704.94;;;7.81;100.00
59475;BME280;45288;51.136;16.928;2024-02-21T01:51:26;100713.63;;;7.82;100.00
59475;BME280;45288;51.136;16.928;2024-02-21T01:54:18;100703.03;;;7.85;100.00
59475;BME280;45288;51.136;16.928;2024-02-21T01:56:51;100693.41;;;7.85;100.00
59475;BME280;45288;51.136;16.928;2024-02-21T01:59:44;100694.91;;;7.74;100.00
59475;BME280;45288;51.136;16.928;2024-02-21T02:02:17;100681.44;;;7.97;100.00
59475;BME280;45288;51.136;16.928;2024-02-21T02:05:10;100682.38;;;7.96;100.00
59475;BME280;45288;51.136;16.928;2024-02-21T02:07:43;100676.72;;;7.88;100.00
59475;BME280;45288;51.136;16.928;2024-02-21T02:10:36;100676.19;;;7.97;100.00
59475;BME280;45288;51.136;16.928;2024-02-21T02:13:09;100673.34;;;8.02;100.00
59475;BME280;45288;51.136;16.928;2024-02-21T02:16:02;100674.09;;;8.20;100.00
59475;BME280;45288;51.136;16.928;2024-02-21T02:18:36;100674.34;;;8.31;100.00
59475;BME280;45288;51.136;16.928;2024-02-21T02:21:38;100672.50;;;8.17;100.00
59475;BME280;45288;51.136;16.928;2024-02-21T02:24:13;100648.38;;;8.12;100.00
59475;BME280;45288;51.136;16.928;2024-02-21T02:27:06;100664.66;;;8.17;100.00
59475;BME280;45288;51.136;16.928;2024-02-21T02:29:39;100668.03;;;8.35;100.00
59475;BME280;45288;51.136;16.928;2024-02-21T02:32:31;100666.63;;;8.14;100.00
59475;BME280;45288;51.136;16.928;2024-02-21T02:35:04;100662.53;;;7.92;100.00
59475;BME280;45288;51.136;16.928;2024-02-21T02:37:58;100658.84;;;7.96;100.00
59475;BME280;45288;51.136;16.928;2024-02-21T02:40:30;100663.31;;;8.10;100.00
59475;BME280;45288;51.136;16.928;2024-02-21T02:43:23;100655.75;;;8.05;100.00
59475;BME280;45288;51.136;16.928;2024-02-21T02:45:56;100649.63;;;8.05;100.00
59475;BME280;45288;51.136;16.928;2024-02-21T02:48:48;100650.16;;;7.80;100.00
59475;BME280;45288;51.136;16.928;2024-02-21T02:51:21;100645.19;;;7.91;100.00
59475;BME280;45288;51.136;16.928;2024-02-21T02:54:13;100648.03;;;7.86;100.00
59475;BME280;45288;51.136;16.928;2024-02-21T02:56:46;100653.59;;;7.64;100.00
59475;BME280;45288;51.136;16.928;2024-02-21T02:59:38;100649.09;;;7.67;100.00
59475;BME280;45288;51.136;16.928;2024-02-21T03:02:11;100643.59;;;7.55;100.00
59475;BME280;45288;51.136;16.928;2024-02-21T03:05:12;100645.16;;;7.75;100.00
59475;BME280;45288;51.136;16.928;2024-02-21T03:07:45;100637.22;;;7.77;100.00
59475;BME280;45288;51.136;16.928;2024-02-21T03:10:38;100636.63;;;7.72;100.00
59475;BME280;45288;51.136;16.928;2024-02-21T03:13:11;100627.34;;;7.66;100.00
59475;BME280;45288;51.136;16.928;2024-02-21T03:16:04;100636.56;;;7.73;100.00
59475;BME280;45288;51.136;16.928;2024-02-21T03:18:36;100634.78;;;7.90;100.00
59475;BME280;45288;51.136;16.928;2024-02-21T03:21:28;100624.84;;;7.64;100.00
59475;BME280;45288;51.136;16.928;2024-02-21T03:24:01;100619.50;;;7.66;100.00
59475;BME280;45288;51.136;16.928;2024-02-21T03:26:53;100619.53;;;7.82;100.00
59475;BME280;45288;51.136;16.928;2024-02-21T03:29:33;100620.22;;;7.85;100.00
59475;BME280;45288;51.136;16.928;2024-02-21T03:32:25;100617.84;;;7.97;100.00
59475;BME280;45288;51.136;16.928;2024-02-21T03:34:58;100619.03;;;7.91;100.00
59475;BME280;45288;51.136;16.928;2024-02-21T03:37:50;100624.25;;;8.07;100.00
59475;BME280;45288;51.136;16.928;2024-02-21T03:40:23;100621.75;;;8.05;100.00
59475;BME280;45288;51.136;16.928;2024-02-21T03:43:15;100611.78;;;7.96;100.00
59475;BME280;45288;51.136;16.928;2024-02-21T03:45:48;100613.56;;;7.96;100.00
59475;BME280;45288;51.136;16.928;2024-02-21T03:48:40;100612.19;;;8.04;100.00
59475;BME280;45288;51.136;16.928;2024-02-21T03:51:13;100614.31;;;8.14;100.00
59475;BME280;45288;51.136;16.928;2024-02-21T03:54:05;100617.78;;;7.98;100.00
59475;BME280;45288;51.136;16.928;2024-02-21T03:56:38;100612.28;;;8.03;100.00
59475;BME280;45288;51.136;16.928;2024-02-21T03:59:30;100610.34;;;7.91;100.00
59475;BME280;45288;51.136;16.928;2024-02-21T04:02:03;100603.94;;;7.80;100.00
59475;BME280;45288;51.136;16.928;2024-02-21T04:04:55;100604.28;;;7.90;100.00
59475;BME280;45288;51.136;16.928;2024-02-21T04:07:28;100602.81;;;7.84;100.00
59475;BME280;45288;51.136;16.928;2024-02-21T04:10:20;100601.16;;;7.83;100.00
59475;BME280;45288;51.136;16.928;2024-02-21T04:12:53;100594.97;;;7.69;100.00
59475;BME280;45288;51.136;16.928;2024-02-21T04:15:45;100593.38;;;7.82;100.00
59475;BME280;45288;51.136;16.928;2024-02-21T04:18:18;100593.28;;;7.99;100.00
59475;BME280;45288;51.136;16.928;2024-02-21T04:21:14;100584.19;;;8.06;100.00
59475;BME280;45288;51.136;16.928;2024-02-21T04:23:47;100596.47;;;8.20;100.00
59475;BME280;45288;51.136;16.928;2024-02-21T04:26:39;100585.75;;;8.25;100.00
59475;BME280;45288;51.136;16.928;2024-02-21T04:29:12;100590.34;;;8.21;100.00
59475;BME280;45288;51.136;16.928;2024-02-21T04:32:05;100579.38;;;8.15;100.00
59475;BME280;45288;51.136;16.928;2024-02-21T04:34:58;100585.88;;;8.07;100.00
59475;BME280;45288;51.136;16.928;2024-02-21T04:37:30;100582.09;;;8.13;100.00
59475;BME280;45288;51.136;16.928;2024-02-21T04:40:22;100576.94;;;8.12;100.00
59475;BME280;45288;51.136;16.928;2024-02-21T04:42:55;100571.25;;;8.19;100.00
59475;BME280;45288;51.136;16.928;2024-02-21T04:45:47;100567.75;;;8.04;100.00
59475;BME280;45288;51.136;16.928;2024-02-21T04:48:20;100571.69;;;8.12;100.00
59475;BME280;45288;51.136;16.928;2024-02-21T04:51:12;100573.78;;;8.21;100.00
59475;BME280;45288;51.136;16.928;2024-02-21T04:53:46;100566.66;;;8.08;100.00
59475;BME280;45288;51.136;16.928;2024-02-21T04:56:38;100563.44;;;8.03;100.00
59475;BME280;45288;51.136;16.928;2024-02-21T04:59:11;100563.09;;;8.09;100.00
59475;BME280;45288;51.136;16.928;2024-02-21T05:02:03;100559.72;;;8.07;100.00
59475;BME280;45288;51.136;16.928;2024-02-21T05:04:36;100562.94;;;7.97;100.00
59475;BME280;45288;51.136;16.928;2024-02-21T05:07:29;100558.66;;;7.96;100.00
59475;BME280;45288;51.136;16.928;2024-02-21T05:10:02;100550.25;;;7.75;100.00
59475;BME280;45288;51.136;16.928;2024-02-21T05:12:55;100551.41;;;7.85;100.00
59475;BME280;45288;51.136;16.928;2024-02-21T05:15:28;100551.47;;;7.83;100.00
59475;BME280;45288;51.136;16.928;2024-02-21T05:18:20;100554.09;;;7.83;100.00
59475;BME280;45288;51.136;16.928;2024-02-21T05:20:53;100551.66;;;7.80;100.00
59475;BME280;45288;51.136;16.928;2024-02-21T05:23:45;100554.69;;;7.73;100.00
59475;BME280;45288;51.136;16.928;2024-02-21T05:26:22;100547.44;;;7.78;100.00
59475;BME280;45288;51.136;16.928;2024-02-21T05:29:14;100542.13;;;7.63;100.00
59475;BME280;45288;51.136;16.928;2024-02-21T05:34:42;100538.44;;;7.68;100.00
59475;BME280;45288;51.136;16.928;2024-02-21T05:37:15;100542.13;;;7.63;100.00
59475;BME280;45288;51.136;16.928;2024-02-21T05:40:08;100538.19;;;7.72;100.00
59475;BME280;45288;51.136;16.928;2024-02-21T05:42:40;100546.75;;;7.74;100.00
59475;BME280;45288;51.136;16.928;2024-02-21T05:45:32;100540.50;;;7.77;100.00
59475;BME280;45288;51.136;16.928;2024-02-21T05:48:05;100544.16;;;7.90;100.00
59475;BME280;45288;51.136;16.928;2024-02-21T05:51:01;100541.25;;;7.95;100.00
59475;BME280;45288;51.136;16.928;2024-02-21T05:53:34;100534.94;;;7.99;100.00
59475;BME280;45288;51.136;16.928;2024-02-21T05:56:26;100534.28;;;7.95;100.00
59475;BME280;45288;51.136;16.928;2024-02-21T05:58:59;100529.34;;;8.05;100.00
59475;BME280;45288;51.136;16.928;2024-02-21T06:01:56;100531.66;;;7.95;100.00
59475;BME280;45288;51.136;16.928;2024-02-21T06:04:29;100537.03;;;8.08;100.00
59475;BME280;45288;51.136;16.928;2024-02-21T06:07:21;100534.88;;;8.00;100.00
59475;BME280;45288;51.136;16.928;2024-02-21T06:09:54;100528.78;;;8.00;100.00
59475;BME280;45288;51.136;16.928;2024-02-21T06:12:46;100529.16;;;7.78;100.00
59475;BME280;45288;51.136;16.928;2024-02-21T06:15:19;100533.63;;;7.76;100.00
59475;BME280;45288;51.136;16.928;2024-02-21T06:18:11;100535.81;;;7.83;100.00
59475;BME280;45288;51.136;16.928;2024-02-21T06:20:44;100533.94;;;7.85;100.00
59475;BME280;45288;51.136;16.928;2024-02-21T06:23:36;100542.81;;;7.83;100.00
59475;BME280;45288;51.136;16.928;2024-02-21T06:26:09;100527.53;;;7.91;100.00
59475;BME280;45288;51.136;16.928;2024-02-21T06:29:01;100536.31;;;7.90;100.00
59475;BME280;45288;51.136;16.928;2024-02-21T06:31:35;100526.09;;;7.85;100.00
59475;BME280;45288;51.136;16.928;2024-02-21T06:34:27;100526.44;;;7.95;100.00
59475;BME280;45288;51.136;16.928;2024-02-21T06:37:00;100527.44;;;7.93;100.00
59475;BME280;45288;51.136;16.928;2024-02-21T06:39:52;100519.50;;;7.94;100.00
59475;BME280;45288;51.136;16.928;2024-02-21T06:42:25;100528.13;;;7.96;100.00
59475;BME280;45288;51.136;16.928;2024-02-21T06:45:17;100526.25;;;7.98;100.00
59475;BME280;45288;51.136;16.928;2024-02-21T06:47:50;100530.72;;;7.96;100.00
59475;BME280;45288;51.136;16.928;2024-02-21T06:50:42;100535.44;;;8.05;100.00
59475;BME280;45288;51.136;16.928;2024-02-21T06:53:15;100527.03;;;8.00;100.00
59475;BME280;45288;51.136;16.928;2024-02-21T06:56:07;100526.06;;;8.01;100.00
59475;BME280;45288;51.136;16.928;2024-02-21T06:58:47;100526.34;;;7.97;100.00
59475;BME280;45288;51.136;16.928;2024-02-21T07:01:32;100525.50;;;7.96;100.00
59475;BME280;45288;51.136;16.928;2024-02-21T07:04:12;100523.72;;;7.97;100.00
59475;BME280;45288;51.136;16.928;2024-02-21T07:06:57;100526.13;;;8.16;100.00
59475;BME280;45288;51.136;16.928;2024-02-21T07:09:51;100524.38;;;8.16;100.00
59475;BME280;45288;51.136;16.928;2024-02-21T07:12:45;100528.88;;;8.28;100.00
59475;BME280;45288;51.136;16.928;2024-02-21T07:15:18;100531.09;;;8.20;100.00
59475;BME280;45288;51.136;16.928;2024-02-21T07:18:12;100519.47;;;8.10;100.00
59475;BME280;45288;51.136;16.928;2024-02-21T07:20:45;100520.78;;;8.03;100.00
59475;BME280;45288;51.136;16.928;2024-02-21T07:23:43;100529.69;;;8.15;100.00
59475;BME280;45288;51.136;16.928;2024-02-21T07:26:15;100526.88;;;8.18;100.00
59475;BME280;45288;51.136;16.928;2024-02-21T07:29:07;100517.75;;;8.25;100.00
59475;BME280;45288;51.136;16.928;2024-02-21T07:31:43;100515.22;;;8.23;100.00
59475;BME280;45288;51.136;16.928;2024-02-21T07:34:37;100514.94;;;8.28;100.00
59475;BME280;45288;51.136;16.928;2024-02-21T07:37:10;100518.00;;;8.20;100.00
59475;BME280;45288;51.136;16.928;2024-02-21T07:40:05;100510.75;;;8.25;100.00
59475;BME280;45288;51.136;16.928;2024-02-21T07:42:38;100511.06;;;8.35;100.00
59475;BME280;45288;51.136;16.928;2024-02-21T07:45:30;100513.84;;;8.32;100.00
59475;BME280;45288;51.136;16.928;2024-02-21T07:48:03;100508.34;;;8.37;100.00
59475;BME280;45288;51.136;16.928;2024-02-21T07:50:56;100499.84;;;8.33;100.00
59475;BME280;45288;51.136;16.928;2024-02-21T07:53:29;100502.38;;;8.35;100.00
59475;BME280;45288;51.136;16.928;2024-02-21T07:56:22;100494.88;;;8.44;100.00
59475;BME280;45288;51.136;16.928;2024-02-21T07:59:01;100488.34;;;8.66;100.00
59475;BME280;45288;51.136;16.928;2024-02-21T08:01:46;100495.34;;;8.65;100.00
59475;BME280;45288;51.136;16.928;2024-02-21T08:04:26;100488.72;;;8.60;100.00
59475;BME280;45288;51.136;16.928;2024-02-21T08:07:11;100480.97;;;8.72;100.00
59475;BME280;45288;51.136;16.928;2024-02-21T08:09:51;100482.34;;;8.64;100.00
59475;BME280;45288;51.136;16.928;2024-02-21T08:12:36;100488.91;;;8.71;100.00
59475;BME280;45288;51.136;16.928;2024-02-21T08:15:16;100484.88;;;8.65;100.00
59475;BME280;45288;51.136;16.928;2024-02-21T08:18:07;100486.09;;;8.60;100.00
59475;BME280;45288;51.136;16.928;2024-02-21T08:20:47;100473.75;;;8.76;100.00
59475;BME280;45288;51.136;16.928;2024-02-21T08:23:32;100473.03;;;8.88;100.00
59475;BME280;45288;51.136;16.928;2024-02-21T08:26:12;100471.59;;;8.83;100.00
59475;BME280;45288;51.136;16.928;2024-02-21T08:28:57;100472.91;;;8.90;100.00
59475;BME280;45288;51.136;16.928;2024-02-21T08:31:45;100471.44;;;8.86;100.00
59475;BME280;45288;51.136;16.928;2024-02-21T08:34:38;100467.94;;;9.00;100.00
59475;BME280;45288;51.136;16.928;2024-02-21T08:37:11;100471.75;;;9.08;100.00
59475;BME280;45288;51.136;16.928;2024-02-21T08:40:04;100467.56;;;9.06;100.00
59475;BME280;45288;51.136;16.928;2024-02-21T08:42:40;100475.44;;;8.91;100.00
59475;BME280;45288;51.136;16.928;2024-02-21T08:45:32;100467.78;;;8.88;100.00
59475;BME280;45288;51.136;16.928;2024-02-21T08:48:05;100461.78;;;8.86;100.00
59475;BME280;45288;51.136;16.928;2024-02-21T08:50:58;100462.91;;;8.97;100.00
59475;BME280;45288;51.136;16.928;2024-02-21T08:53:31;100463.09;;;8.93;100.00
59475;BME280;45288;51.136;16.928;2024-02-21T08:56:23;100462.91;;;8.97;100.00
59475;BME280;45288;51.136;16.928;2024-02-21T08:58:56;100454.84;;;9.14;100.00
59475;BME280;45288;51.136;16.928;2024-02-21T09:01:48;100458.75;;;9.21;100.00
59475;BME280;45288;51.136;16.928;2024-02-21T09:04:21;100459.50;;;9.23;100.00
59475;BME280;45288;51.136;16.928;2024-02-21T09:07:13;100456.44;;;9.02;100.00
59475;BME280;45288;51.136;16.928;2024-02-21T09:09:46;100447.34;;;9.22;100.00
59475;BME280;45288;51.136;16.928;2024-02-21T09:12:38;100450.88;;;9.21;100.00
59475;BME280;45288;51.136;16.928;2024-02-21T09:15:11;100449.31;;;9.18;100.00
59475;BME280;45288;51.136;16.928;2024-02-21T09:18:03;100442.19;;;9.21;100.00
59475;BME280;45288;51.136;16.928;2024-02-21T09:20:36;100448.25;;;9.35;100.00
59475;BME280;45288;51.136;16.928;2024-02-21T09:23:28;100447.16;;;9.25;100.00
59475;BME280;45288;51.136;16.928;2024-02-21T09:26:01;100453.88;;;9.29;100.00
59475;BME280;45288;51.136;16.928;2024-02-21T09:28:55;100444.78;;;9.35;100.00
59475;BME280;45288;51.136;16.928;2024-02-21T09:31:28;100448.44;;;9.32;100.00
59475;BME280;45288;51.136;16.928;2024-02-21T09:34:20;100451.16;;;9.31;100.00
59475;BME280;45288;51.136;16.928;2024-02-21T09:36:53;100439.44;;;9.36;100.00
59475;BME280;45288;51.136;16.928;2024-02-21T09:39:46;100443.56;;;9.41;100.00
59475;BME280;45288;51.136;16.928;2024-02-21T09:42:20;100436.91;;;9.62;100.00
59475;BME280;45288;51.136;16.928;2024-02-21T09:45:21;100437.66;;;9.64;100.00
59475;BME280;45288;51.136;16.928;2024-02-21T09:51:19;100437.25;;;9.70;100.00
59475;BME280;45288;51.136;16.928;2024-02-21T09:53:53;100438.84;;;9.73;100.00
59475;BME280;45288;51.136;16.928;2024-02-21T09:56:47;100435.38;;;9.72;100.00
59475;BME280;45288;51.136;16.928;2024-02-21T09:59:19;100446.41;;;9.77;100.00
59475;BME280;45288;51.136;16.928;2024-02-21T10:02:44;100440.81;;;9.69;100.00
59475;BME280;45288;51.136;16.928;2024-02-21T10:05:17;100448.44;;;9.87;100.00
59475;BME280;45288;51.136;16.928;2024-02-21T10:08:14;100441.47;;;9.73;100.00
59475;BME280;45288;51.136;16.928;2024-02-21T10:10:46;100439.25;;;9.67;100.00
59475;BME280;45288;51.136;16.928;2024-02-21T10:13:44;100440.69;;;9.58;100.00
59475;BME280;45288;51.136;16.928;2024-02-21T10:16:17;100449.13;;;9.49;100.00
59475;BME280;45288;51.136;16.928;2024-02-21T10:19:19;100437.69;;;9.50;100.00
59475;BME280;45288;51.136;16.928;2024-02-21T10:22:05;100436.13;;;9.47;100.00
59475;BME280;45288;51.136;16.928;2024-02-21T10:25:07;100448.59;;;9.71;100.00
59475;BME280;45288;51.136;16.928;2024-02-21T10:27:39;100449.97;;;9.76;100.00
59475;BME280;45288;51.136;16.928;2024-02-21T10:30:32;100444.16;;;9.58;100.00
59475;BME280;45288;51.136;16.928;2024-02-21T10:33:25;100441.63;;;9.57;100.00
59475;BME280;45288;51.136;16.928;2024-02-21T10:36:07;100434.16;;;9.51;100.00
59475;BME280;45288;51.136;16.928;2024-02-21T10:39:00;100431.75;;;9.48;100.00
59475;BME280;45288;51.136;16.928;2024-02-21T10:41:33;100425.59;;;9.61;100.00
59475;BME280;45288;51.136;16.928;2024-02-21T10:44:28;100422.94;;;9.76;100.00
59475;BME280;45288;51.136;16.928;2024-02-21T10:47:07;100417.91;;;9.86;100.00
59475;BME280;45288;51.136;16.928;2024-02-21T10:50:03;100415.59;;;9.94;100.00
59475;BME280;45288;51.136;16.928;2024-02-21T10:52:53;100406.28;;;10.02;100.00
59475;BME280;45288;51.136;16.928;2024-02-21T10:55:57;100395.34;;;9.96;100.00
59475;BME280;45288;51.136;16.928;2024-02-21T10:58:32;100400.00;;;10.18;100.00
59475;BME280;45288;51.136;16.928;2024-02-21T11:01:26;100395.16;;;10.24;100.00
59475;BME280;45288;51.136;16.928;2024-02-21T11:04:06;100392.44;;;10.26;100.00
59475;BME280;45288;51.136;16.928;2024-02-21T11:07:00;100387.25;;;10.39;100.00
59475;BME280;45288;51.136;16.928;2024-02-21T11:09:40;100383.44;;;10.17;100.00
59475;BME280;45288;51.136;16.928;2024-02-21T11:12:26;100391.72;;;10.24;100.00
59475;BME280;45288;51.136;16.928;2024-02-21T11:15:06;100382.25;;;10.21;100.00
59475;BME280;45288;51.136;16.928;2024-02-21T11:17:55;100380.63;;;10.33;100.00
59475;BME280;45288;51.136;16.928;2024-02-21T11:20:36;100374.72;;;10.42;100.00
59475;BME280;45288;51.136;16.928;2024-02-21T11:23:28;100372.75;;;10.33;100.00
59475;BME280;45288;51.136;16.928;2024-02-21T11:26:08;100366.72;;;10.69;100.00
59475;BME280;45288;51.136;16.928;2024-02-21T11:29:01;100359.47;;;10.73;100.00
59475;BME280;45288;51.136;16.928;2024-02-21T11:31:44;100350.03;;;10.58;100.00
59475;BME280;45288;51.136;16.928;2024-02-21T11:34:37;100346.09;;;10.76;100.00
59475;BME280;45288;51.136;16.928;2024-02-21T11:37:15;100342.75;;;11.11;100.00
59475;BME280;45288;51.136;16.928;2024-02-21T11:40:09;100337.03;;;10.93;100.00
59475;BME280;45288;51.136;16.928;2024-02-21T11:42:42;100348.50;;;10.92;100.00
59475;BME280;45288;51.136;16.928;2024-02-21T11:45:35;100335.66;;;11.00;100.00
59475;BME280;45288;51.136;16.928;2024-02-21T11:48:07;100350.13;;;11.06;100.00
59475;BME280;45288;51.136;16.928;2024-02-21T11:51:00;100344.13;;;11.04;100.00
59475;BME280;45288;51.136;16.928;2024-02-21T11:53:33;100337.25;;;10.90;100.00
59475;BME280;45288;51.136;16.928;2024-02-21T11:56:25;100338.91;;;10.91;100.00
59475;BME280;45288;51.136;16.928;2024-02-21T11:58:59;100338.72;;;10.81;100.00
59475;BME280;45288;51.136;16.928;2024-02-21T12:01:52;100329.41;;;10.77;100.00
59475;BME280;45288;51.136;16.928;2024-02-21T12:04:25;100325.34;;;10.60;100.00
59475;BME280;45288;51.136;16.928;2024-02-21T12:07:18;100324.25;;;10.76;100.00
59475;BME280;45288;51.136;16.928;2024-02-21T12:09:51;100318.81;;;11.03;100.00
59475;BME280;45288;51.136;16.928;2024-02-21T12:12:45;100315.19;;;11.17;100.00
59475;BME280;45288;51.136;16.928;2024-02-21T12:15:18;100304.91;;;10.89;100.00
59475;BME280;45288;51.136;16.928;2024-02-21T12:18:11;100302.59;;;10.85;100.00
59475;BME280;45288;51.136;16.928;2024-02-21T12:20:43;100294.88;;;10.70;100.00
59475;BME280;45288;51.136;16.928;2024-02-21T12:23:38;100298.16;;;10.61;100.00
59475;BME280;45288;51.136;16.928;2024-02-21T12:26:10;100297.22;;;10.62;100.00
59475;BME280;45288;51.136;16.928;2024-02-21T14:48:51;100133.06;;;11.39;100.00
59475;BME280;45288;51.136;16.928;2024-02-21T14:51:43;100129.47;;;11.40;100.00
59475;BME280;45288;51.136;16.928;2024-02-21T14:54:16;100130.53;;;11.48;100.00
59475;BME280;45288;51.136;16.928;2024-02-21T14:57:09;100127.19;;;11.69;100.00
59475;BME280;45288;51.136;16.928;2024-02-21T14:59:41;100118.22;;;11.71;100.00
59475;BME280;45288;51.136;16.928;2024-02-21T15:02:45;100107.13;;;11.56;100.00
59475;BME280;45288;51.136;16.928;2024-02-21T15:05:17;100114.50;;;11.74;100.00
59475;BME280;45288;51.136;16.928;2024-02-21T15:08:10;100114.75;;;11.71;100.00
59475;BME280;45288;51.136;16.928;2024-02-21T15:10:45;100101.72;;;11.81;100.00
59475;BME280;45288;51.136;16.928;2024-02-21T15:13:38;100097.78;;;11.64;100.00
59475;BME280;45288;51.136;16.928;2024-02-21T15:16:10;100096.56;;;11.79;100.00
59475;BME280;45288;51.136;16.928;2024-02-21T15:19:03;100095.16;;;11.75;100.00
59475;BME280;45288;51.136;16.928;2024-02-21T15:21:57;100103.06;;;11.86;100.00
59475;BME280;45288;51.136;16.928;2024-02-21T15:24:43;100098.13;;;11.82;100.00
59475;BME280;45288;51.136;16.928;2024-02-21T15:27:22;100094.41;;;11.84;100.00
59475;BME280;45288;51.136;16.928;2024-02-21T15:30:09;100092.91;;;11.93;100.00
59475;BME280;45288;51.136;16.928;2024-02-21T15:32:48;100086.19;;;11.66;100.00
59475;BME280;45288;51.136;16.928;2024-02-21T15:35:34;100096.72;;;11.89;100.00
59475;BME280;45288;51.136;16.928;2024-02-21T15:38:13;100083.19;;;11.71;100.00
59475;BME280;45288;51.136;16.928;2024-02-21T15:40:59;100083.69;;;11.65;100.00
59475;BME280;45288;51.136;16.928;2024-02-21T15:43:38;100088.47;;;11.71;100.00
59475;BME280;45288;51.136;16.928;2024-02-21T15:46:24;100088.94;;;11.76;100.00
59475;BME280;45288;51.136;16.928;2024-02-21T15:49:10;100077.94;;;11.71;100.00
59475;BME280;45288;51.136;16.928;2024-02-21T15:52:03;100076.50;;;11.67;100.00
59475;BME280;45288;51.136;16.928;2024-02-21T15:54:35;100082.69;;;11.77;100.00
59475;BME280;45288;51.136;16.928;2024-02-21T15:57:28;100078.69;;;11.62;100.00
59475;BME280;45288;51.136;16.928;2024-02-21T16:00:00;100073.56;;;11.49;100.00
59475;BME280;45288;51.136;16.928;2024-02-21T16:02:58;100071.53;;;11.41;100.00
59475;BME280;45288;51.136;16.928;2024-02-21T16:05:30;100071.53;;;11.19;100.00
59475;BME280;45288;51.136;16.928;2024-02-21T16:08:33;100063.38;;;11.33;100.00
59475;BME280;45288;51.136;16.928;2024-02-21T16:11:14;100061.72;;;11.54;100.00
59475;BME280;45288;51.136;16.928;2024-02-21T16:14:07;100061.47;;;11.35;100.00
59475;BME280;45288;51.136;16.928;2024-02-21T16:16:39;100064.09;;;11.35;100.00
59475;BME280;45288;51.136;16.928;2024-02-21T16:19:32;100070.44;;;11.44;100.00
59475;BME280;45288;51.136;16.928;2024-02-21T16:22:11;100067.19;;;11.18;100.00
59475;BME280;45288;51.136;16.928;2024-02-21T16:24:57;100063.84;;;11.04;100.00
59475;BME280;45288;51.136;16.928;2024-02-21T16:27:39;100069.78;;;10.84;100.00